Time;durP1;ratioP1;P1;durP2;ratioP2;P2;SDS_P1;SDS_P2;PMS_P1;PMS_P2;Temp;Humidity;BMP_temperature;BMP_pressure;BME280_temperature;BME280_humidity;BME280_pressure;Samples;Min_cycle;Max_cycle;Signal;HPM_P1;HPM_P2
2024/02/05 00:01:48;;;;;;;14.82;3.60;;;10.10;99.90;;;;;;5106746;28;20032;-90
2024/02/05 00:04:15;;;;;;;23.42;3.70;;;10.20;99.90;;;;;;5104104;28;20040;-90
2024/02/05 00:06:42;;;;;;;15.52;3.25;;;10.30;99.90;;;;;;5101888;28;20050;-89
2024/02/05 00:09:09;;;;;;;20.60;3.35;;;10.20;99.90;;;;;;5110340;28;20043;-89
2024/02/05 00:11:36;;;;;;;15.43;3.08;;;10.30;99.90;;;;;;5099387;28;20039;-89
2024/02/05 00:14:03;;;;;;;18.83;3.10;;;10.30;99.90;;;;;;5106165;28;20040;-90
2024/02/05 00:16:29;;;;;;;17.52;2.97;;;10.50;99.90;;;;;;5115860;28;20036;-89
2024/02/05 00:18:56;;;;;;;17.58;3.70;;;10.40;99.90;;;;;;5107526;28;20051;-90
2024/02/05 00:21:22;;;;;;;22.88;3.83;;;10.30;99.90;;;;;;5110582;28;20477;-90
2024/02/05 00:23:49;;;;;;;19.50;3.38;;;10.30;99.90;;;;;;5097503;28;20040;-89
2024/02/05 00:26:16;;;;;;;16.48;2.97;;;10.50;99.90;;;;;;5093631;28;20044;-90
2024/02/05 00:28:42;;;;;;;17.90;3.70;;;10.40;99.90;;;;;;5093743;28;20048;-89
2024/02/05 00:31:09;;;;;;;25.10;5.25;;;10.40;99.90;;;;;;5095634;28;20064;-90
2024/02/05 00:33:36;;;;;;;20.50;3.97;;;10.40;99.90;;;;;;5096729;28;20543;-91
2024/02/05 00:36:04;;;;;;;16.63;3.80;;;10.30;99.90;;;;;;5102835;28;20082;-90
2024/02/05 00:38:31;;;;;;;18.52;3.30;;;10.40;99.90;;;;;;5100386;28;20044;-90
2024/02/05 00:40:58;;;;;;;17.48;3.55;;;10.50;99.90;;;;;;5106931;28;20037;-89
2024/02/05 00:43:24;;;;;;;17.88;3.40;;;10.40;99.90;;;;;;5098700;28;20048;-90
2024/02/05 00:45:51;;;;;;;16.45;4.20;;;10.60;99.90;;;;;;5107751;28;20040;-89
2024/02/05 00:48:18;;;;;;;21.95;3.78;;;10.40;99.90;;;;;;5117680;28;20032;-91
2024/02/05 00:50:44;;;;;;;18.52;3.55;;;10.40;99.90;;;;;;5101954;28;20630;-90
2024/02/05 00:53:11;;;;;;;23.65;3.78;;;10.50;99.90;;;;;;5103858;28;20032;-90
2024/02/05 00:55:37;;;;;;;17.45;3.63;;;10.40;99.90;;;;;;5101431;28;20035;-89
2024/02/05 00:58:04;;;;;;;19.58;3.72;;;10.50;99.90;;;;;;5118248;28;20080;-90
2024/02/05 01:00:31;;;;;;;21.25;3.50;;;10.90;99.90;;;;;;5109192;28;20032;-89
2024/02/05 01:02:57;;;;;;;20.25;3.70;;;10.50;99.90;;;;;;5098892;28;20055;-89
2024/02/05 01:05:24;;;;;;;26.85;3.75;;;10.40;99.90;;;;;;5104965;28;20032;-90
2024/02/05 01:07:51;;;;;;;18.67;3.55;;;10.40;99.90;;;;;;5103614;28;20032;-89
2024/02/05 01:10:18;;;;;;;21.95;3.50;;;10.50;99.90;;;;;;5097819;28;20105;-89
2024/02/05 01:12:44;;;;;;;20.92;3.45;;;10.30;99.90;;;;;;5102212;28;20068;-89
2024/02/05 01:15:11;;;;;;;20.00;3.80;;;10.30;99.90;;;;;;5095147;28;20473;-90
2024/02/05 01:17:38;;;;;;;15.98;3.83;;;10.30;99.90;;;;;;5102877;28;20043;-90
2024/02/05 01:20:10;;;;;;;18.17;3.25;;;10.30;99.90;;;;;;5121880;28;20110;-90
2024/02/05 01:22:38;;;;;;;23.20;3.88;;;10.30;99.90;;;;;;5135432;28;20037;-90
2024/02/05 01:25:05;;;;;;;20.77;3.92;;;10.40;99.90;;;;;;5106778;28;20094;-89
2024/02/05 01:27:31;;;;;;;19.55;4.07;;;10.30;99.90;;;;;;5114488;28;20552;-88
2024/02/05 01:29:58;;;;;;;22.27;3.40;;;10.30;99.90;;;;;;5108766;28;20035;-90
2024/02/05 01:32:24;;;;;;;21.90;3.38;;;10.30;99.90;;;;;;5100558;28;20100;-89
2024/02/05 01:34:51;;;;;;;19.15;4.25;;;10.30;99.90;;;;;;5110127;28;20149;-89
2024/02/05 01:37:18;;;;;;;19.25;3.95;;;10.30;99.90;;;;;;5114497;28;20044;-89
2024/02/05 01:39:44;;;;;;;25.60;4.22;;;10.30;99.90;;;;;;5105204;28;20511;-89
2024/02/05 01:42:11;;;;;;;21.65;3.95;;;10.40;99.90;;;;;;5101914;28;20039;-89
2024/02/05 01:44:38;;;;;;;26.25;4.00;;;10.30;99.90;;;;;;5100769;28;20043;-90
2024/02/05 01:47:04;;;;;;;17.33;3.63;;;10.30;99.90;;;;;;5118276;28;20097;-89
2024/02/05 01:49:31;;;;;;;27.88;3.72;;;10.30;99.90;;;;;;5113996;28;20484;-90
2024/02/05 01:52:02;;;;;;;23.80;4.53;;;10.60;99.90;;;;;;5110821;28;20035;-89
2024/02/05 01:54:29;;;;;;;26.17;4.53;;;10.40;99.90;;;;;;5096200;28;20050;-90
2024/02/05 01:56:58;;;;;;;21.42;4.03;;;10.20;99.90;;;;;;5122687;27;20133;-90
2024/02/05 01:59:25;;;;;;;20.50;3.85;;;10.20;99.90;;;;;;5096103;28;20109;-89
2024/02/05 02:01:51;;;;;;;16.38;3.45;;;10.20;99.90;;;;;;5108861;28;20125;-90
2024/02/05 02:04:18;;;;;;;24.23;3.92;;;10.20;99.90;;;;;;5104632;28;20118;-89
2024/02/05 02:06:45;;;;;;;25.13;3.97;;;11.10;99.90;;;;;;5110476;28;20550;-89
2024/02/05 02:09:13;;;;;;;27.30;4.43;;;10.20;99.90;;;;;;5107391;28;20039;-90
2024/02/05 02:11:43;;;;;;;16.58;3.78;;;10.50;99.90;;;;;;5125610;28;20036;-90
2024/02/05 02:14:09;;;;;;;21.05;3.72;;;11.10;99.90;;;;;;5103282;28;20508;-89
2024/02/05 02:16:36;;;;;;;24.27;4.05;;;10.20;99.90;;;;;;5095593;28;20039;-89
2024/02/05 02:19:27;;;;;;;21.83;3.55;;;10.10;99.90;;;;;;5096218;28;20519;-89
2024/02/05 02:22:41;;;;;;;21.25;3.80;;;10.10;99.90;;;;;;5111827;28;20126;-89
2024/02/05 02:25:08;;;;;;;18.63;3.45;;;10.10;99.90;;;;;;5107860;28;20059;-89
2024/02/05 02:27:35;;;;;;;18.35;3.25;;;10.10;99.90;;;;;;5127055;28;20572;-88
2024/02/05 02:30:02;;;;;;;28.20;4.60;;;10.40;99.90;;;;;;5103625;28;20046;-89
2024/02/05 02:32:47;;;;;;;24.40;4.18;;;10.10;99.90;;;;;;5108299;28;20035;-89
2024/02/05 02:35:29;;;;;;;23.52;3.72;;;10.10;99.90;;;;;;5106106;28;20064;-89
2024/02/05 02:38:06;;;;;;;26.00;4.07;;;10.10;99.90;;;;;;5098829;28;20047;-90
2024/02/05 02:40:34;;;;;;;24.98;3.72;;;10.00;99.90;;;;;;5097198;28;20071;-89
2024/02/05 02:43:03;;;;;;;29.27;4.45;;;10.50;99.90;;;;;;5106889;28;20584;-89
2024/02/05 02:45:31;;;;;;;24.45;4.07;;;10.10;99.90;;;;;;5102470;28;20032;-90
2024/02/05 02:47:58;;;;;;;23.30;4.30;;;10.10;99.90;;;;;;5110223;28;20039;-90
2024/02/05 02:50:24;;;;;;;25.35;4.70;;;10.00;99.90;;;;;;5110903;28;20400;-89
2024/02/05 02:52:51;;;;;;;25.50;4.10;;;10.10;99.90;;;;;;5109112;28;20039;-90
2024/02/05 02:55:17;;;;;;;18.17;3.97;;;10.10;99.90;;;;;;5108265;28;20369;-90
2024/02/05 02:57:44;;;;;;;22.35;4.45;;;10.20;99.90;;;;;;5104499;28;20051;-88
2024/02/05 03:00:12;;;;;;;22.13;4.43;;;10.10;99.90;;;;;;5128055;28;20055;-89
2024/02/05 03:02:39;;;;;;;30.67;4.53;;;10.10;99.90;;;;;;5094122;28;20044;-89
2024/02/05 03:05:06;;;;;;;23.83;4.30;;;10.10;99.90;;;;;;5112656;28;20498;-89
2024/02/05 03:07:34;;;;;;;24.63;3.75;;;10.10;99.90;;;;;;5103180;28;20058;-89
2024/02/05 03:10:05;;;;;;;28.42;5.18;;;10.10;99.90;;;;;;5110887;28;20119;-90
2024/02/05 03:12:32;;;;;;;18.55;4.15;;;10.10;99.90;;;;;;5114857;28;20126;-89
2024/02/05 03:15:00;;;;;;;32.90;5.32;;;10.10;99.90;;;;;;5114509;28;20032;-90
2024/02/05 03:17:27;;;;;;;22.60;3.72;;;10.10;99.90;;;;;;5105869;28;20042;-89
2024/02/05 03:19:54;;;;;;;20.08;3.75;;;10.50;99.90;;;;;;5104634;28;20035;-90
2024/02/05 03:22:20;;;;;;;19.73;4.05;;;10.10;99.90;;;;;;5102585;28;20113;-89
2024/02/05 03:24:47;;;;;;;25.60;4.18;;;10.70;99.90;;;;;;5107352;28;20077;-89
2024/02/05 03:27:15;;;;;;;27.20;3.75;;;10.10;99.90;;;;;;5089518;28;20504;-89
2024/02/05 03:29:41;;;;;;;29.60;4.90;;;10.10;99.90;;;;;;5097359;28;20036;-89
2024/02/05 03:32:08;;;;;;;25.92;4.15;;;10.10;99.90;;;;;;5101661;28;20040;-90
2024/02/05 03:34:35;;;;;;;15.10;3.92;;;10.50;99.90;;;;;;5109716;28;20089;-90
2024/02/05 03:37:02;;;;;;;33.33;4.97;;;10.00;99.90;;;;;;5098061;28;20131;-89
2024/02/05 03:39:28;;;;;;;22.92;4.10;;;10.00;99.90;;;;;;5115371;28;20044;-91
2024/02/05 03:41:55;;;;;;;26.80;4.43;;;10.00;99.90;;;;;;5096591;28;20036;-90
2024/02/05 03:44:22;;;;;;;18.10;4.15;;;10.40;99.90;;;;;;5110930;28;20047;-90
2024/02/05 03:46:49;;;;;;;27.58;4.82;;;10.00;99.90;;;;;;5104209;28;20040;-90
2024/02/05 03:49:15;;;;;;;25.83;3.97;;;10.00;99.90;;;;;;5103579;28;20064;-90
2024/02/05 03:51:42;;;;;;;24.52;4.93;;;10.10;99.90;;;;;;5105378;28;20050;-90
2024/02/05 03:54:09;;;;;;;19.08;4.00;;;10.80;99.90;;;;;;5107840;28;20032;-89
2024/02/05 03:56:35;;;;;;;16.23;3.13;;;10.00;99.90;;;;;;5111037;28;20047;-90
2024/02/05 03:59:02;;;;;;;22.88;4.07;;;10.00;99.90;;;;;;5098491;28;20101;-89
2024/02/05 04:01:29;;;;;;;31.42;4.75;;;10.00;99.90;;;;;;5094226;28;20040;-89
2024/02/05 04:03:56;;;;;;;30.67;4.97;;;10.10;99.90;;;;;;5115646;28;20036;-89
2024/02/05 04:06:23;;;;;;;21.48;4.13;;;9.90;99.90;;;;;;5110978;28;20043;-90
2024/02/05 04:08:50;;;;;;;24.45;4.72;;;9.90;99.90;;;;;;5103156;28;20032;-89
2024/02/05 04:11:16;;;;;;;26.20;4.13;;;9.90;99.90;;;;;;5101693;28;20036;-89
2024/02/05 04:13:43;;;;;;;27.08;4.28;;;9.90;99.90;;;;;;5108715;28;20088;-89
2024/02/05 04:16:13;;;;;;;32.88;5.70;;;9.80;99.90;;;;;;5100521;28;20075;-89
2024/02/05 04:18:40;;;;;;;23.25;4.63;;;9.90;99.90;;;;;;5110715;28;20096;-90
2024/02/05 04:21:07;;;;;;;24.02;4.38;;;9.80;99.90;;;;;;5107352;28;20039;-91
2024/02/05 04:23:34;;;;;;;27.65;5.03;;;10.00;99.90;;;;;;5094524;28;20032;-90
2024/02/05 04:26:03;;;;;;;25.85;5.05;;;10.00;99.90;;;;;;5091228;28;20049;-90
2024/02/05 04:28:33;;;;;;;24.85;4.95;;;9.80;99.90;;;;;;5107837;28;20043;-90
2024/02/05 04:31:00;;;;;;;26.73;5.18;;;9.80;99.90;;;;;;5098416;28;20029;-91
2024/02/05 04:33:27;;;;;;;26.80;4.47;;;9.90;99.90;;;;;;5094615;28;20029;-89
2024/02/05 04:35:53;;;;;;;20.90;4.65;;;9.80;99.90;;;;;;5095218;28;20044;-89
2024/02/05 04:38:20;;;;;;;21.38;5.00;;;9.80;99.90;;;;;;5102471;28;20508;-89
2024/02/05 04:40:47;;;;;;;23.35;4.22;;;9.70;99.90;;;;;;5107705;28;20550;-90
2024/02/05 04:43:13;;;;;;;23.75;5.15;;;9.90;99.90;;;;;;5094240;28;20049;-90
2024/02/05 04:45:40;;;;;;;25.80;4.75;;;9.80;99.90;;;;;;5094377;28;20036;-89
2024/02/05 04:48:07;;;;;;;17.75;4.78;;;9.70;99.90;;;;;;5093873;28;20495;-89
2024/02/05 04:50:33;;;;;;;22.52;4.90;;;9.70;99.90;;;;;;5098054;28;20198;-89
2024/02/05 04:53:00;;;;;;;21.27;4.78;;;9.80;99.90;;;;;;5127885;28;20032;-90
2024/02/05 04:55:26;;;;;;;28.52;4.68;;;9.70;99.90;;;;;;5113667;28;20036;-89
2024/02/05 04:57:53;;;;;;;29.35;5.25;;;9.90;99.90;;;;;;5102768;28;20048;-90
2024/02/05 05:00:21;;;;;;;21.67;4.50;;;9.70;99.90;;;;;;5099532;28;20072;-89
2024/02/05 05:02:48;;;;;;;21.05;4.70;;;9.70;99.90;;;;;;5107746;28;20048;-91
2024/02/05 05:05:15;;;;;;;25.38;4.55;;;9.60;99.90;;;;;;5103616;28;20036;-90
2024/02/05 05:07:42;;;;;;;23.52;4.75;;;9.70;99.90;;;;;;5098959;28;20059;-89
2024/02/05 05:10:08;;;;;;;26.15;4.63;;;9.70;99.90;;;;;;5109196;28;20123;-90
2024/02/05 05:12:35;;;;;;;22.92;5.20;;;9.60;99.90;;;;;;5116731;28;20078;-91
2024/02/05 05:15:02;;;;;;;29.45;4.75;;;9.60;99.90;;;;;;5101337;28;20033;-90
2024/02/05 05:17:28;;;;;;;26.30;4.75;;;9.60;99.90;;;;;;5097149;28;20044;-90
2024/02/05 05:19:56;;;;;;;27.40;5.22;;;9.50;99.90;;;;;;5100158;28;20036;-89
2024/02/05 05:22:22;;;;;;;21.67;4.20;;;9.50;99.90;;;;;;5105421;28;20101;-89
2024/02/05 05:24:49;;;;;;;29.92;5.18;;;9.60;99.90;;;;;;5109304;28;20033;-90
2024/02/05 05:27:16;;;;;;;25.10;4.68;;;9.50;99.90;;;;;;5107347;28;20081;-89
2024/02/05 05:29:42;;;;;;;30.20;5.35;;;10.00;99.90;;;;;;5098089;28;20040;-90
2024/02/05 05:32:09;;;;;;;24.80;5.28;;;9.60;99.90;;;;;;5096519;28;20127;-89
2024/02/05 05:34:36;;;;;;;24.85;5.43;;;9.80;99.90;;;;;;5126706;28;20638;-89
2024/02/05 05:37:03;;;;;;;23.15;4.63;;;10.00;99.90;;;;;;5123239;28;20127;-89
2024/02/05 05:39:29;;;;;;;25.85;4.85;;;9.50;99.90;;;;;;5125886;28;20094;-90
2024/02/05 05:41:56;;;;;;;22.75;4.72;;;9.50;99.90;;;;;;5103575;28;20488;-90
2024/02/05 05:44:22;;;;;;;24.02;5.43;;;9.50;99.90;;;;;;5103276;28;20040;-89
2024/02/05 05:46:49;;;;;;;30.13;5.65;;;10.00;99.90;;;;;;5109779;28;20078;-90
2024/02/05 05:49:16;;;;;;;28.25;5.03;;;9.50;99.90;;;;;;5109911;28;20039;-89
2024/02/05 05:51:42;;;;;;;30.90;6.05;;;9.50;99.90;;;;;;5096635;28;20032;-90
2024/02/05 05:54:09;;;;;;;28.65;6.22;;;9.50;99.90;;;;;;5096643;28;20078;-90
2024/02/05 05:56:35;;;;;;;25.00;4.50;;;9.50;99.90;;;;;;5107528;28;20058;-89
2024/02/05 05:59:02;;;;;;;29.08;5.20;;;9.80;99.90;;;;;;5108653;28;20044;-90
2024/02/05 06:01:29;;;;;;;29.15;5.38;;;9.50;99.90;;;;;;5121520;28;20048;-89
2024/02/05 06:03:57;;;;;;;23.92;5.22;;;9.70;99.90;;;;;;5101205;28;20042;-89
2024/02/05 06:06:23;;;;;;;28.88;5.47;;;9.50;99.90;;;;;;5095923;28;20032;-89
2024/02/05 06:08:50;;;;;;;25.30;4.30;;;9.80;99.90;;;;;;5096621;28;20499;-89
2024/02/05 06:11:17;;;;;;;26.52;5.75;;;9.50;99.90;;;;;;5105751;28;20506;-89
2024/02/05 06:13:43;;;;;;;29.35;4.95;;;9.50;99.90;;;;;;5108641;28;20040;-89
2024/02/05 06:16:10;;;;;;;25.02;4.63;;;9.60;99.90;;;;;;5096064;28;20471;-89
2024/02/05 06:18:37;;;;;;;31.00;4.68;;;9.40;99.90;;;;;;5095815;28;20039;-90
2024/02/05 06:21:06;;;;;;;25.77;5.32;;;9.50;99.90;;;;;;5098348;28;20039;-89
2024/02/05 06:23:33;;;;;;;27.73;4.55;;;9.40;99.90;;;;;;5109235;28;20027;-89
2024/02/05 06:25:59;;;;;;;25.45;6.28;;;9.40;99.90;;;;;;5125576;28;20056;-90
2024/02/05 06:28:26;;;;;;;18.02;4.80;;;9.40;99.90;;;;;;5092142;28;20037;-90
2024/02/05 06:30:52;;;;;;;25.58;4.45;;;9.40;99.90;;;;;;5099675;28;20412;-90
2024/02/05 06:33:19;;;;;;;35.63;5.80;;;9.40;99.90;;;;;;5093287;28;20043;-90
2024/02/05 06:35:46;;;;;;;37.38;5.65;;;9.70;99.90;;;;;;5093334;28;20041;-90
2024/02/05 06:38:12;;;;;;;31.10;4.70;;;9.40;99.90;;;;;;5101552;28;20403;-90
2024/02/05 06:40:39;;;;;;;28.15;5.43;;;9.40;99.90;;;;;;5092285;28;20040;-89
2024/02/05 06:43:08;;;;;;;26.15;5.28;;;9.40;99.90;;;;;;5113632;28;20035;-90
2024/02/05 06:45:38;;;;;;;23.92;4.30;;;9.80;99.90;;;;;;5094766;28;20032;-90
2024/02/05 06:48:05;;;;;;;22.20;4.45;;;9.30;99.90;;;;;;5102158;28;20105;-90
2024/02/05 06:50:31;;;;;;;29.25;5.90;;;9.30;99.90;;;;;;5092361;28;20507;-90
2024/02/05 06:52:58;;;;;;;24.17;4.32;;;9.30;99.90;;;;;;5100934;28;20036;-90
2024/02/05 06:55:25;;;;;;;22.05;5.40;;;9.30;99.90;;;;;;5110265;28;20540;-89
2024/02/05 06:57:51;;;;;;;28.33;4.97;;;9.40;99.90;;;;;;5096924;28;20069;-90
2024/02/05 07:00:18;;;;;;;23.58;4.68;;;9.30;99.90;;;;;;5100995;28;20047;-90
2024/02/05 07:02:45;;;;;;;24.60;4.90;;;9.30;99.90;;;;;;5107695;28;20036;-90
2024/02/05 07:05:14;;;;;;;24.20;5.07;;;9.30;99.90;;;;;;5094403;28;20569;-89
2024/02/05 07:07:40;;;;;;;22.25;4.35;;;9.30;99.90;;;;;;5107912;28;20071;-90
2024/02/05 07:10:07;;;;;;;18.05;5.13;;;9.40;99.90;;;;;;5092406;28;20028;-91
2024/02/05 07:12:34;;;;;;;23.15;4.70;;;9.30;99.90;;;;;;5098993;28;20033;-90
2024/02/05 07:15:01;;;;;;;20.77;4.90;;;9.80;99.90;;;;;;5098263;28;20063;-91
2024/02/05 07:17:32;;;;;;;28.63;4.68;;;9.40;99.90;;;;;;5112949;28;20072;-92
2024/02/05 07:20:03;;;;;;;21.38;4.40;;;9.30;99.90;;;;;;5115933;28;20098;-89
2024/02/05 07:22:31;;;;;;;27.35;5.40;;;9.40;99.90;;;;;;5108560;28;20087;-91
2024/02/05 07:24:58;;;;;;;28.00;5.00;;;9.30;99.90;;;;;;5105862;28;20071;-90
2024/02/05 07:27:26;;;;;;;26.60;4.70;;;9.30;99.90;;;;;;5103877;28;20044;-91
2024/02/05 07:29:53;;;;;;;26.83;5.85;;;9.30;99.90;;;;;;5115727;28;20123;-92
2024/02/05 07:32:20;;;;;;;25.70;4.32;;;9.30;99.90;;;;;;5102821;28;20193;-91
2024/02/05 07:34:47;;;;;;;22.60;4.45;;;9.40;99.90;;;;;;5100740;28;20044;-90
2024/02/05 07:37:14;;;;;;;29.27;5.20;;;10.30;99.90;;;;;;5101356;28;20148;-89
2024/02/05 07:39:40;;;;;;;23.88;4.60;;;9.30;99.90;;;;;;5104533;28;20040;-91
2024/02/05 07:42:07;;;;;;;24.50;4.40;;;9.30;99.90;;;;;;5102198;28;20044;-91
2024/02/05 07:44:34;;;;;;;27.58;4.82;;;9.30;99.90;;;;;;5106474;28;20123;-91
2024/02/05 07:47:00;;;;;;;21.20;4.45;;;9.30;99.90;;;;;;5094702;28;20119;-91
2024/02/05 07:49:27;;;;;;;27.15;5.20;;;9.30;99.90;;;;;;5101920;28;20036;-87
2024/02/05 07:51:55;;;;;;;16.48;4.15;;;9.70;99.90;;;;;;5110214;28;20180;-93
2024/02/05 07:54:26;;;;;;;14.73;3.92;;;9.40;99.90;;;;;;5108020;28;20127;-93
2024/02/05 07:56:55;;;;;;;21.60;4.22;;;10.50;99.90;;;;;;5121861;28;20055;-92
2024/02/05 07:59:22;;;;;;;23.67;4.60;;;9.30;99.90;;;;;;5108048;28;20043;-91
2024/02/05 08:01:49;;;;;;;21.65;4.22;;;9.30;99.90;;;;;;5099733;28;20040;-92
2024/02/05 08:04:15;;;;;;;20.55;4.47;;;9.30;99.90;;;;;;5104925;28;20043;-91
2024/02/05 08:06:42;;;;;;;22.75;4.55;;;9.30;99.90;;;;;;5106410;28;20547;-90
2024/02/05 08:09:08;;;;;;;22.08;3.72;;;9.30;99.90;;;;;;5103365;28;20512;-92
2024/02/05 08:11:35;;;;;;;24.13;4.55;;;9.30;99.90;;;;;;5105012;28;20028;-89
2024/02/05 08:14:02;;;;;;;26.38;4.38;;;9.80;99.90;;;;;;5107161;28;20031;-90
2024/02/05 08:16:29;;;;;;;21.10;4.43;;;9.80;99.90;;;;;;5110564;28;20058;-90
2024/02/05 08:18:55;;;;;;;28.52;4.47;;;10.10;99.90;;;;;;5109576;28;20031;-89
2024/02/05 08:21:22;;;;;;;19.77;4.00;;;9.30;99.90;;;;;;5109723;28;20089;-92
2024/02/05 08:23:50;;;;;;;27.88;5.07;;;9.30;99.90;;;;;;5107162;28;20127;-91
2024/02/05 08:26:18;;;;;;;19.70;4.50;;;9.50;99.90;;;;;;5103311;28;20048;-90
2024/02/05 08:28:46;;;;;;;25.45;4.55;;;9.30;99.90;;;;;;5112580;28;20118;-91
2024/02/05 08:31:13;;;;;;;24.90;4.38;;;9.30;99.90;;;;;;5102987;28;20063;-91
2024/02/05 08:33:39;;;;;;;26.88;4.60;;;9.30;99.90;;;;;;5102952;28;20031;-91
2024/02/05 08:36:06;;;;;;;19.83;4.40;;;9.50;99.90;;;;;;5112664;28;20122;-91
2024/02/05 08:38:33;;;;;;;23.45;4.60;;;9.30;99.90;;;;;;5105558;28;20054;-92
2024/02/05 08:40:59;;;;;;;18.38;4.40;;;9.30;99.90;;;;;;5124924;28;20043;-91
2024/02/05 08:43:26;;;;;;;20.80;3.85;;;9.50;99.90;;;;;;5122786;28;20404;-91
2024/02/05 08:45:53;;;;;;;22.08;3.72;;;9.30;99.90;;;;;;5108632;28;20043;-91
2024/02/05 08:48:19;;;;;;;20.40;4.30;;;9.30;99.90;;;;;;5103119;28;20154;-91
2024/02/05 08:50:46;;;;;;;24.92;4.28;;;9.40;99.90;;;;;;5113418;28;20068;-92
2024/02/05 08:53:13;;;;;;;19.38;4.70;;;9.30;99.90;;;;;;5105444;28;20480;-92
2024/02/05 08:55:39;;;;;;;25.15;4.10;;;9.30;99.90;;;;;;5104309;27;20048;-89
2024/02/05 08:58:06;;;;;;;25.48;4.43;;;9.80;99.90;;;;;;5113243;28;20032;-89
2024/02/05 09:00:33;;;;;;;23.92;4.80;;;9.30;99.90;;;;;;5108947;28;20040;-88
2024/02/05 09:02:59;;;;;;;23.65;4.50;;;9.70;99.90;;;;;;5106855;28;20063;-89
2024/02/05 09:05:26;;;;;;;16.80;3.47;;;9.60;99.90;;;;;;5104181;28;20072;-88
2024/02/05 09:07:53;;;;;;;19.73;4.20;;;9.50;99.90;;;;;;5103328;28;20040;-88
2024/02/05 09:10:19;;;;;;;27.70;4.38;;;9.80;99.90;;;;;;5112525;28;21149;-89
2024/02/05 09:12:46;;;;;;;22.52;4.15;;;9.40;99.90;;;;;;5096970;28;20028;-88
2024/02/05 09:15:14;;;;;;;27.98;4.38;;;9.30;99.90;;;;;;5115850;28;20168;-89
2024/02/05 09:17:41;;;;;;;20.80;3.97;;;9.30;99.90;;;;;;5125013;28;20035;-88
2024/02/05 09:20:08;;;;;;;20.02;4.07;;;9.30;99.90;;;;;;5104926;28;20040;-88
2024/02/05 09:22:34;;;;;;;31.17;4.53;;;9.30;99.90;;;;;;5102534;28;20036;-90
2024/02/05 09:25:01;;;;;;;21.77;3.70;;;9.60;99.90;;;;;;5110788;28;20052;-89
2024/02/05 09:27:29;;;;;;;18.77;4.13;;;9.40;99.90;;;;;;5102237;28;20052;-88
2024/02/05 09:29:55;;;;;;;18.27;4.00;;;9.30;99.90;;;;;;5116438;28;20032;-90
2024/02/05 09:32:22;;;;;;;18.80;3.83;;;9.40;99.90;;;;;;5099622;28;20229;-89
2024/02/05 09:34:49;;;;;;;20.25;4.28;;;9.30;99.90;;;;;;5096808;28;20035;-88
2024/02/05 09:37:15;;;;;;;21.67;4.40;;;9.30;99.90;;;;;;5103396;28;20043;-89
2024/02/05 09:39:42;;;;;;;16.88;4.63;;;9.50;99.90;;;;;;5101407;28;20122;-92
2024/02/05 09:42:11;;;;;;;19.17;4.00;;;9.30;99.90;;;;;;5106718;28;20067;-88
2024/02/05 09:44:38;;;;;;;22.40;3.65;;;9.40;99.90;;;;;;5112539;27;20042;-89
2024/02/05 09:47:08;;;;;;;23.10;4.68;;;9.40;99.90;;;;;;5102605;28;20535;-89
2024/02/05 09:49:36;;;;;;;16.05;3.63;;;9.30;99.90;;;;;;5124119;28;20044;-89
2024/02/05 09:52:05;;;;;;;14.32;3.53;;;9.40;99.90;;;;;;5098800;28;20036;-88
2024/02/05 09:54:33;;;;;;;19.17;4.50;;;9.40;99.90;;;;;;5103346;28;20036;-91
2024/02/05 09:57:00;;;;;;;18.95;4.13;;;9.40;99.90;;;;;;5096882;28;20119;-88
2024/02/05 09:59:27;;;;;;;16.92;3.90;;;9.70;99.90;;;;;;5104949;28;20081;-87
2024/02/05 10:01:55;;;;;;;24.75;3.92;;;9.40;99.90;;;;;;5102351;28;20047;-88
2024/02/05 10:04:24;;;;;;;17.98;4.13;;;9.40;99.90;;;;;;5097927;28;20036;-90
2024/02/05 10:06:52;;;;;;;27.17;4.35;;;9.40;99.90;;;;;;5117340;28;20042;-89
2024/02/05 10:09:22;;;;;;;23.27;4.20;;;9.40;99.90;;;;;;5108812;28;20115;-89
2024/02/05 10:11:51;;;;;;;21.42;4.55;;;10.00;99.90;;;;;;5101052;28;20750;-90
2024/02/05 10:14:18;;;;;;;17.25;3.10;;;9.40;99.90;;;;;;5103504;28;20138;-88
2024/02/05 10:16:46;;;;;;;16.10;4.13;;;9.50;99.90;;;;;;5099459;28;20032;-90
2024/02/05 10:19:13;;;;;;;18.35;3.90;;;9.40;99.90;;;;;;5101377;28;20040;-89
2024/02/05 10:21:41;;;;;;;18.30;3.67;;;9.40;99.90;;;;;;5104213;28;20039;-91
2024/02/05 10:24:13;;;;;;;15.00;4.20;;;9.50;99.90;;;;;;5106042;28;20040;-89
2024/02/05 10:26:41;;;;;;;20.98;4.00;;;9.50;99.90;;;;;;5107663;28;20071;-88
2024/02/05 10:29:10;;;;;;;23.52;4.60;;;9.50;99.90;;;;;;5122756;28;20119;-88
2024/02/05 10:31:49;;;;;;;15.45;3.63;;;10.10;99.90;;;;;;5109918;28;20028;-89
2024/02/05 10:34:23;;;;;;;19.20;4.90;;;9.50;99.90;;;;;;5095864;28;20055;-89
2024/02/05 10:36:51;;;;;;;19.15;4.15;;;9.50;99.90;;;;;;5112544;28;20039;-89
2024/02/05 10:39:27;;;;;;;22.70;4.25;;;9.50;99.90;;;;;;5111668;28;20040;-88
2024/02/05 10:41:54;;;;;;;24.85;4.32;;;9.50;99.90;;;;;;5115618;28;20484;-90
2024/02/05 10:44:21;;;;;;;11.68;3.63;;;9.80;99.90;;;;;;5115834;28;20480;-89
2024/02/05 10:46:50;;;;;;;14.55;3.78;;;9.60;99.90;;;;;;5115529;28;20077;-89
2024/02/05 10:49:17;;;;;;;23.33;4.03;;;9.60;99.90;;;;;;5098647;28;20472;-90
2024/02/05 10:51:45;;;;;;;13.52;3.47;;;9.70;99.90;;;;;;5101798;28;20032;-88
2024/02/05 10:54:12;;;;;;;22.35;4.47;;;9.70;99.90;;;;;;5100313;28;20036;-88
2024/02/05 10:56:42;;;;;;;17.13;3.60;;;9.50;99.90;;;;;;5112585;27;20110;-90
2024/02/05 10:59:12;;;;;;;19.33;4.22;;;9.60;99.90;;;;;;5124667;28;20046;-90
2024/02/05 11:01:45;;;;;;;28.80;4.90;;;9.40;99.90;;;;;;5102059;28;20040;-89
2024/02/05 11:04:16;;;;;;;28.20;4.40;;;9.50;99.90;;;;;;5104832;28;20066;-91
2024/02/05 11:06:47;;;;;;;22.50;4.28;;;9.50;99.90;;;;;;5101180;28;20109;-89
2024/02/05 11:09:15;;;;;;;18.95;3.97;;;9.90;99.90;;;;;;5104106;28;20040;-88
2024/02/05 11:11:45;;;;;;;18.80;3.97;;;9.40;99.90;;;;;;5102999;28;20484;-87
2024/02/05 11:14:17;;;;;;;13.10;3.28;;;9.50;99.90;;;;;;5111544;28;20040;-89
2024/02/05 11:16:44;;;;;;;20.92;3.75;;;9.50;99.90;;;;;;5109641;28;20164;-88
2024/02/05 11:19:15;;;;;;;16.52;3.45;;;9.40;99.90;;;;;;5128480;28;20040;-90
2024/02/05 11:21:48;;;;;;;19.90;4.15;;;9.40;99.90;;;;;;5109536;28;20080;-88
2024/02/05 11:24:15;;;;;;;15.95;3.13;;;9.50;99.90;;;;;;5103122;28;20484;-88
2024/02/05 11:26:42;;;;;;;18.58;3.70;;;9.40;99.90;;;;;;5098947;28;20059;-88
2024/02/05 11:29:09;;;;;;;19.90;4.38;;;9.40;99.90;;;;;;5119039;28;20666;-89
2024/02/05 11:31:38;;;;;;;20.35;3.97;;;9.40;99.90;;;;;;5100238;28;20067;-90
2024/02/05 11:34:09;;;;;;;20.10;3.42;;;9.50;99.90;;;;;;5118762;28;20036;-92
2024/02/05 11:36:42;;;;;;;14.57;3.60;;;9.80;99.90;;;;;;5103003;28;20047;-91
2024/02/05 11:39:12;;;;;;;18.52;4.53;;;9.40;99.90;;;;;;5107304;28;20044;-90
2024/02/05 11:41:39;;;;;;;11.93;3.65;;;9.40;99.90;;;;;;5106734;28;20047;-90
2024/02/05 11:44:07;;;;;;;19.23;4.53;;;9.40;99.90;;;;;;5109634;28;20040;-91
2024/02/05 11:46:34;;;;;;;16.90;3.65;;;9.40;99.90;;;;;;5123404;28;20047;-90
2024/02/05 11:49:02;;;;;;;22.88;3.75;;;9.40;99.90;;;;;;5096213;28;20039;-89
2024/02/05 11:51:29;;;;;;;16.17;4.20;;;9.40;99.90;;;;;;5096712;28;20631;-90
2024/02/05 11:53:57;;;;;;;15.40;3.63;;;9.50;99.90;;;;;;5135669;28;20036;-88
2024/02/05 11:56:24;;;;;;;17.13;4.00;;;9.40;99.90;;;;;;5117319;28;20415;-90
2024/02/05 11:58:51;;;;;;;22.05;3.50;;;9.40;99.90;;;;;;5095393;28;20123;-89
2024/02/05 12:01:21;;;;;;;18.58;3.50;;;9.60;99.90;;;;;;5090432;28;20075;-89
2024/02/05 12:03:49;;;;;;;16.95;3.60;;;9.60;99.90;;;;;;5105373;28;20044;-87
2024/02/05 12:06:15;;;;;;;18.13;3.60;;;9.30;99.90;;;;;;5101055;28;20504;-89
2024/02/05 12:08:44;;;;;;;17.52;3.53;;;9.30;99.90;;;;;;5110347;28;20066;-88
2024/02/05 12:11:11;;;;;;;20.98;4.72;;;9.40;99.90;;;;;;5107302;28;20122;-90
2024/02/05 12:13:39;;;;;;;22.05;4.22;;;9.30;99.90;;;;;;5101960;28;20396;-89
2024/02/05 12:16:12;;;;;;;17.85;3.60;;;9.40;99.90;;;;;;5108057;28;20444;-89
2024/02/05 12:18:39;;;;;;;19.95;4.20;;;9.30;99.90;;;;;;5109493;28;20448;-89
2024/02/05 12:21:07;;;;;;;17.30;3.55;;;9.20;99.90;;;;;;5098726;28;20114;-89
2024/02/05 12:23:35;;;;;;;19.02;3.67;;;9.30;99.90;;;;;;5116034;28;20178;-90
2024/02/05 12:26:02;;;;;;;20.88;3.83;;;9.30;99.90;;;;;;5101165;28;20052;-89
2024/02/05 12:28:32;;;;;;;17.05;3.60;;;9.20;99.90;;;;;;5108622;28;20090;-89
2024/02/05 12:30:59;;;;;;;18.42;3.40;;;9.40;99.90;;;;;;5098582;28;20146;-89
2024/02/05 12:33:26;;;;;;;17.95;3.70;;;9.20;99.90;;;;;;5104388;28;20032;-90
2024/02/05 12:36:07;;;;;;;11.43;3.70;;;10.00;99.90;;;;;;5102338;28;20044;-90
2024/02/05 12:38:34;;;;;;;23.25;4.13;;;9.10;99.90;;;;;;5102360;28;20039;-89
2024/02/05 12:41:01;;;;;;;21.50;4.07;;;9.20;99.90;;;;;;5099232;28;20032;-89
2024/02/05 12:43:31;;;;;;;18.65;3.88;;;9.20;99.90;;;;;;5101845;28;20032;-90
2024/02/05 12:45:58;;;;;;;19.35;3.70;;;9.10;99.90;;;;;;5094740;28;20032;-88